Time;durP1;ratioP1;P1;durP2;ratioP2;P2;SDS_P1;SDS_P2;PMS_P1;PMS_P2;Temp;Humidity;BMP_temperature;BMP_pressure;BME280_temperature;BME280_humidity;BME280_pressure;Samples;Min_cycle;Max_cycle;Signal;HPM_P1;HPM_P2
2022/12/23 00:00:14;;;;;;;22.33;12.27;;;;;;;;;;5094098;28;20437;-64
2022/12/23 00:02:41;;;;;;;30.57;12.97;;;;;;;;;;5094061;28;20475;-65
2022/12/23 00:05:09;;;;;;;26.23;11.00;;;;;;;;;;5094317;28;20531;-65
2022/12/23 00:07:36;;;;;;;35.00;13.90;;;;;;;;;;5094030;28;20448;-64
2022/12/23 00:10:04;;;;;;;31.90;11.23;;;;;;;;;;5094190;28;20445;-64
2022/12/23 00:15:18;;;;;;;18.33;8.97;;;;;;;;;;5093921;28;20400;-65
2022/12/23 00:17:45;;;;;;;28.37;10.80;;;;;;;;;;5094229;28;20447;-65
2022/12/23 00:20:13;;;;;;;23.40;10.83;;;;;;;;;;5094101;28;20439;-65
2022/12/23 00:25:43;;;;;;;36.27;12.00;;;;;;;;;;5031568;28;20462;-65
2022/12/23 00:28:11;;;;;;;32.23;10.53;;;;;;;;;;5081177;28;20953;-64
2022/12/23 00:30:45;;;;;;;22.57;10.97;;;;;;;;;;5093925;28;20440;-64
2022/12/23 00:33:12;;;;;;;28.50;12.13;;;;;;;;;;5094056;28;20449;-64
2022/12/23 00:35:40;;;;;;;26.40;11.30;;;;;;;;;;5093851;28;20440;-65
2022/12/23 00:38:07;;;;;;;23.20;13.00;;;;;;;;;;5093893;28;20513;-65
2022/12/23 00:43:19;;;;;;;24.53;13.30;;;;;;;;;;5093645;28;20401;-65
2022/12/23 00:45:47;;;;;;;32.87;12.83;;;;;;;;;;5093565;28;20951;-65
2022/12/23 00:51:14;;;;;;;29.17;13.50;;;;;;;;;;5031197;28;20431;-65
2022/12/23 00:53:41;;;;;;;26.43;13.53;;;;;;;;;;5031393;28;20463;-65
2022/12/23 00:56:08;;;;;;;29.13;13.50;;;;;;;;;;5058510;28;20454;-65
2022/12/23 00:58:35;;;;;;;30.30;14.40;;;;;;;;;;5093189;28;20480;-65
2022/12/23 01:06:36;;;;;;;27.57;12.33;;;;;;;;;;5073147;28;20451;-66
2022/12/23 01:09:03;;;;;;;40.60;14.90;;;;;;;;;;5073628;28;20432;-66
2022/12/23 01:11:30;;;;;;;30.53;14.23;;;;;;;;;;5072911;28;20451;-66
2022/12/23 01:13:58;;;;;;;38.07;15.23;;;;;;;;;;5072953;28;20444;-66
2022/12/23 01:16:27;;;;;;;33.10;17.33;;;;;;;;;;5073297;28;20455;-66
2022/12/23 01:18:54;;;;;;;33.80;13.50;;;;;;;;;;5073285;28;20438;-66
2022/12/23 01:21:22;;;;;;;27.70;14.03;;;;;;;;;;5073234;28;20825;-65
2022/12/23 01:23:49;;;;;;;35.50;14.80;;;;;;;;;;5073265;28;20502;-66
2022/12/23 01:26:16;;;;;;;27.07;13.97;;;;;;;;;;5072817;28;20450;-66
2022/12/23 01:28:43;;;;;;;35.57;13.87;;;;;;;;;;5073333;28;20498;-65
2022/12/23 01:31:11;;;;;;;25.63;13.70;;;;;;;;;;5073479;28;20520;-65
2022/12/23 01:33:40;;;;;;;32.03;14.40;;;;;;;;;;5073276;28;21035;-65
2022/12/23 01:36:09;;;;;;;28.40;13.93;;;;;;;;;;5073035;28;20445;-65
2022/12/23 01:38:36;;;;;;;29.07;14.10;;;;;;;;;;5073090;28;20438;-65
2022/12/23 01:41:03;;;;;;;27.73;14.00;;;;;;;;;;5072899;28;20468;-65
2022/12/23 01:43:44;;;;;;;29.30;14.10;;;;;;;;;;5072734;28;20449;-65
2022/12/23 01:46:11;;;;;;;40.60;14.63;;;;;;;;;;5072881;28;20480;-65
2022/12/23 01:48:40;;;;;;;30.13;14.00;;;;;;;;;;5073096;28;20444;-66
2022/12/23 01:51:09;;;;;;;29.00;14.57;;;;;;;;;;5072869;28;20875;-66
2022/12/23 01:53:38;;;;;;;20.30;14.50;;;;;;;;;;5072993;28;20535;-66
2022/12/23 01:56:07;;;;;;;27.80;13.57;;;;;;;;;;5073339;28;20801;-65
2022/12/23 01:58:35;;;;;;;26.07;13.27;;;;;;;;;;5073124;28;20809;-66
2022/12/23 02:03:50;;;;;;;22.27;12.63;;;;;;;;;;5072655;28;20437;-66
2022/12/23 02:09:16;;;;;;;22.10;12.33;;;;;;;;;;5076217;28;20397;-65
2022/12/23 02:11:53;;;;;;;26.00;12.50;;;;;;;;;;5076271;28;20440;-66
2022/12/23 02:17:19;;;;;;;24.43;11.20;;;;;;;;;;5076064;28;20397;-66
2022/12/23 02:20:06;;;;;;;22.60;11.33;;;;;;;;;;5076800;28;20505;-65
2022/12/23 02:22:44;;;;;;;23.93;11.40;;;;;;;;;;5075733;28;20468;-66
2022/12/23 02:25:29;;;;;;;18.43;11.60;;;;;;;;;;5076528;28;20437;-66
2022/12/23 02:28:01;;;;;;;29.17;12.00;;;;;;;;;;5075508;28;20454;-65
2022/12/23 02:30:30;;;;;;;23.83;11.50;;;;;;;;;;5076258;28;20767;-65
2022/12/23 02:33:14;;;;;;;19.83;9.20;;;;;;;;;;5075617;28;20444;-65
2022/12/23 02:35:44;;;;;;;15.40;8.67;;;;;;;;;;5075708;28;20441;-65
2022/12/23 02:38:14;;;;;;;15.67;10.23;;;;;;;;;;5075885;28;20432;-65
2022/12/23 02:40:43;;;;;;;18.03;9.87;;;;;;;;;;5075495;28;20445;-65
2022/12/23 02:43:14;;;;;;;13.17;8.73;;;;;;;;;;5075354;28;21024;-65
2022/12/23 02:45:46;;;;;;;19.77;11.33;;;;;;;;;;5075791;28;20440;-65
2022/12/23 02:48:14;;;;;;;16.10;9.37;;;;;;;;;;5075757;28;20439;-65
2022/12/23 02:50:43;;;;;;;15.50;10.03;;;;;;;;;;5075351;28;20451;-65
2022/12/23 02:53:13;;;;;;;18.70;10.30;;;;;;;;;;5075560;28;20449;-65
2022/12/23 02:55:42;;;;;;;14.03;10.00;;;;;;;;;;5075597;28;20447;-66
2022/12/23 02:58:11;;;;;;;17.03;9.77;;;;;;;;;;5075356;28;20480;-65
2022/12/23 03:00:39;;;;;;;15.20;9.43;;;;;;;;;;5075470;28;20883;-65
2022/12/23 03:03:08;;;;;;;12.87;8.90;;;;;;;;;;5075177;28;20481;-66
2022/12/23 03:05:38;;;;;;;13.70;9.27;;;;;;;;;;5075013;28;20953;-65
2022/12/23 03:08:06;;;;;;;13.20;9.83;;;;;;;;;;5075240;28;20445;-65
2022/12/23 03:10:39;;;;;;;13.60;10.10;;;;;;;;;;5075504;28;20455;-65
2022/12/23 03:13:14;;;;;;;12.67;10.07;;;;;;;;;;5075223;28;20454;-65
2022/12/23 03:15:46;;;;;;;15.00;10.73;;;;;;;;;;5075167;28;20436;-65
2022/12/23 03:18:21;;;;;;;13.10;9.13;;;;;;;;;;5074808;28;20441;-65
2022/12/23 03:20:52;;;;;;;17.27;10.33;;;;;;;;;;5075530;28;20436;-65
2022/12/23 03:23:22;;;;;;;15.17;10.30;;;;;;;;;;5075138;28;20468;-65
2022/12/23 03:25:54;;;;;;;16.03;9.70;;;;;;;;;;5074953;28;20443;-65
2022/12/23 03:28:26;;;;;;;17.93;11.77;;;;;;;;;;5075090;28;20459;-65
2022/12/23 03:30:55;;;;;;;23.03;11.40;;;;;;;;;;5075127;28;20529;-65
2022/12/23 03:33:24;;;;;;;19.27;11.73;;;;;;;;;;5074750;28;20448;-65
2022/12/23 03:35:53;;;;;;;19.30;11.90;;;;;;;;;;5074771;28;20198;-65
2022/12/23 03:38:22;;;;;;;24.00;13.23;;;;;;;;;;5074627;28;20436;-65
2022/12/23 03:40:52;;;;;;;16.70;11.30;;;;;;;;;;5074424;28;20956;-65
2022/12/23 03:43:21;;;;;;;19.20;12.03;;;;;;;;;;5074769;28;20469;-65
2022/12/23 03:45:50;;;;;;;24.37;12.33;;;;;;;;;;5074219;28;20977;-65
2022/12/23 03:48:20;;;;;;;17.90;12.90;;;;;;;;;;5074442;28;20436;-65
2022/12/23 03:50:50;;;;;;;16.50;10.73;;;;;;;;;;5074760;28;20483;-64
2022/12/23 03:53:20;;;;;;;16.73;11.87;;;;;;;;;;5074001;28;20451;-64
2022/12/23 03:55:52;;;;;;;19.33;11.67;;;;;;;;;;5074598;28;20532;-64
2022/12/23 03:58:25;;;;;;;23.90;13.30;;;;;;;;;;5074418;28;20472;-64
2022/12/23 04:00:57;;;;;;;20.63;12.00;;;;;;;;;;5075013;28;20425;-64
2022/12/23 04:03:27;;;;;;;13.93;10.70;;;;;;;;;;5074353;28;20491;-64
2022/12/23 04:05:58;;;;;;;17.33;11.83;;;;;;;;;;5074775;28;20878;-64
2022/12/23 04:08:27;;;;;;;19.83;12.33;;;;;;;;;;5074141;28;20432;-64
2022/12/23 04:10:55;;;;;;;23.03;13.53;;;;;;;;;;5074334;28;20434;-64
2022/12/23 04:13:22;;;;;;;16.67;11.10;;;;;;;;;;5073589;28;20455;-65
2022/12/23 04:15:49;;;;;;;19.67;11.77;;;;;;;;;;5073609;28;20445;-65
2022/12/23 04:18:16;;;;;;;19.17;12.70;;;;;;;;;;5073885;28;20527;-65
2022/12/23 04:20:43;;;;;;;17.50;10.93;;;;;;;;;;5074019;28;20443;-65
2022/12/23 04:23:12;;;;;;;19.50;12.10;;;;;;;;;;5073753;28;20487;-65
2022/12/23 04:25:39;;;;;;;18.20;11.70;;;;;;;;;;5073593;28;20951;-65
2022/12/23 04:28:06;;;;;;;20.20;12.43;;;;;;;;;;5072901;28;20939;-65
2022/12/23 04:30:33;;;;;;;16.13;11.30;;;;;;;;;;5073819;28;20436;-65
2022/12/23 04:33:01;;;;;;;19.63;12.90;;;;;;;;;;5073379;28;20444;-65
2022/12/23 04:35:28;;;;;;;22.30;13.40;;;;;;;;;;5073430;28;20448;-65
2022/12/23 04:37:55;;;;;;;28.90;13.90;;;;;;;;;;5073706;28;20448;-65
2022/12/23 04:40:24;;;;;;;25.37;13.27;;;;;;;;;;5073463;28;20460;-64
2022/12/23 04:42:51;;;;;;;26.33;13.47;;;;;;;;;;5073451;28;20483;-64
2022/12/23 04:45:18;;;;;;;21.73;13.80;;;;;;;;;;5073305;28;20539;-64
2022/12/23 04:47:45;;;;;;;25.27;13.60;;;;;;;;;;5073224;28;20445;-64
2022/12/23 04:50:14;;;;;;;28.97;13.47;;;;;;;;;;5073263;28;20933;-64
2022/12/23 04:52:42;;;;;;;24.90;14.40;;;;;;;;;;5073522;28;20432;-64
2022/12/23 04:55:09;;;;;;;26.40;14.70;;;;;;;;;;5072613;28;20453;-64
2022/12/23 04:57:38;;;;;;;25.63;13.60;;;;;;;;;;5072197;28;20486;-64
2022/12/23 05:00:06;;;;;;;24.00;13.60;;;;;;;;;;5072349;28;20520;-64
2022/12/23 05:02:33;;;;;;;25.53;15.07;;;;;;;;;;5072234;28;21003;-64
2022/12/23 05:05:00;;;;;;;24.77;13.70;;;;;;;;;;5072542;28;20804;-64
2022/12/23 05:07:28;;;;;;;28.03;14.60;;;;;;;;;;5072578;28;20444;-64
2022/12/23 05:10:00;;;;;;;26.13;13.30;;;;;;;;;;5072311;28;20459;-64
2022/12/23 05:12:27;;;;;;;27.97;14.20;;;;;;;;;;5072517;28;20848;-64
2022/12/23 05:14:56;;;;;;;27.13;14.60;;;;;;;;;;5072620;28;20441;-64
2022/12/23 05:17:23;;;;;;;29.40;13.97;;;;;;;;;;5072379;28;20453;-64
2022/12/23 05:19:50;;;;;;;25.73;13.33;;;;;;;;;;5072477;28;20442;-64
2022/12/23 05:22:18;;;;;;;21.10;13.30;;;;;;;;;;5072475;28;20436;-64
2022/12/23 05:24:45;;;;;;;21.00;13.40;;;;;;;;;;5083383;28;20448;-64
2022/12/23 05:27:12;;;;;;;26.37;13.43;;;;;;;;;;5093327;28;20458;-64
2022/12/23 05:29:40;;;;;;;19.50;12.40;;;;;;;;;;5092880;28;20440;-64
2022/12/23 05:32:08;;;;;;;23.70;12.77;;;;;;;;;;5093172;28;20917;-64
2022/12/23 05:34:35;;;;;;;26.07;13.43;;;;;;;;;;5093158;28;20440;-64
2022/12/23 05:37:03;;;;;;;24.17;13.00;;;;;;;;;;5092938;28;20448;-64
2022/12/23 05:39:30;;;;;;;23.63;12.70;;;;;;;;;;5092178;28;20443;-64
2022/12/23 05:41:57;;;;;;;26.63;13.73;;;;;;;;;;5095690;28;20450;-64
2022/12/23 05:44:24;;;;;;;22.83;11.67;;;;;;;;;;5096477;28;20467;-64
2022/12/23 05:46:51;;;;;;;25.40;14.27;;;;;;;;;;5096727;28;20920;-64
2022/12/23 05:49:21;;;;;;;24.77;14.17;;;;;;;;;;5096789;28;20447;-64
2022/12/23 05:51:48;;;;;;;22.70;13.30;;;;;;;;;;5096529;28;20936;-64
2022/12/23 05:54:15;;;;;;;20.30;13.67;;;;;;;;;;5096398;28;20828;-64
2022/12/23 05:56:43;;;;;;;22.47;13.93;;;;;;;;;;5096623;28;20991;-64
2022/12/23 05:59:10;;;;;;;26.90;12.43;;;;;;;;;;5095692;28;20470;-65
2022/12/23 06:01:37;;;;;;;23.17;13.63;;;;;;;;;;5096190;28;20478;-64
2022/12/23 06:04:04;;;;;;;24.50;14.43;;;;;;;;;;5096302;28;20486;-64
2022/12/23 06:06:33;;;;;;;21.93;13.03;;;;;;;;;;5096352;28;20443;-64
2022/12/23 06:09:00;;;;;;;24.53;14.60;;;;;;;;;;5096859;28;20446;-64
2022/12/23 06:11:28;;;;;;;24.10;13.57;;;;;;;;;;5096522;28;20455;-64
2022/12/23 06:13:55;;;;;;;26.83;13.57;;;;;;;;;;5096390;28;20543;-64
2022/12/23 06:16:22;;;;;;;23.83;14.30;;;;;;;;;;5096320;28;20441;-64
2022/12/23 06:18:49;;;;;;;25.20;13.30;;;;;;;;;;5095723;28;20443;-64
2022/12/23 06:21:17;;;;;;;34.80;15.17;;;;;;;;;;5095408;28;20447;-64
2022/12/23 06:23:46;;;;;;;26.00;13.87;;;;;;;;;;5095432;28;20489;-65
2022/12/23 06:26:13;;;;;;;27.17;15.80;;;;;;;;;;5096133;28;20489;-64
2022/12/23 06:28:41;;;;;;;25.20;14.17;;;;;;;;;;5096304;28;20443;-64
2022/12/23 06:31:08;;;;;;;25.77;14.17;;;;;;;;;;5096024;28;20445;-65
2022/12/23 06:33:35;;;;;;;32.73;15.60;;;;;;;;;;5095753;28;20445;-65
2022/12/23 06:36:02;;;;;;;28.23;16.00;;;;;;;;;;5095410;28;20842;-65
2022/12/23 06:38:29;;;;;;;25.10;15.47;;;;;;;;;;5095837;28;20440;-65
2022/12/23 06:40:58;;;;;;;23.40;14.27;;;;;;;;;;5095444;28;20449;-65
2022/12/23 06:43:25;;;;;;;29.53;14.93;;;;;;;;;;5095202;28;20618;-64
2022/12/23 06:45:52;;;;;;;23.60;14.97;;;;;;;;;;5095320;28;20435;-65
2022/12/23 06:48:20;;;;;;;30.47;14.83;;;;;;;;;;5095772;28;20770;-64
2022/12/23 06:50:47;;;;;;;25.80;13.67;;;;;;;;;;5095113;28;20443;-68
2022/12/23 06:53:14;;;;;;;24.57;12.63;;;;;;;;;;5095760;28;20441;-64
2022/12/23 06:55:41;;;;;;;26.77;15.80;;;;;;;;;;5095911;28;20446;-64
2022/12/23 06:58:10;;;;;;;24.57;15.07;;;;;;;;;;5095983;28;20496;-64
2022/12/23 07:00:37;;;;;;;22.57;13.33;;;;;;;;;;5095518;28;20438;-64
2022/12/23 07:03:04;;;;;;;28.60;14.97;;;;;;;;;;5096242;28;20486;-64
2022/12/23 07:05:31;;;;;;;27.03;14.50;;;;;;;;;;5095164;28;20922;-64
2022/12/23 07:07:59;;;;;;;24.63;13.07;;;;;;;;;;5095916;28;20960;-64
2022/12/23 07:10:26;;;;;;;30.50;13.97;;;;;;;;;;5095493;28;21054;-64
2022/12/23 07:12:53;;;;;;;27.97;14.07;;;;;;;;;;5095642;28;20467;-64
2022/12/23 07:15:22;;;;;;;28.43;15.30;;;;;;;;;;5095455;28;20442;-64
2022/12/23 07:17:49;;;;;;;25.50;13.90;;;;;;;;;;5095329;28;20519;-64
2022/12/23 07:20:16;;;;;;;24.87;13.47;;;;;;;;;;5095122;28;20440;-64
2022/12/23 07:22:43;;;;;;;28.33;13.40;;;;;;;;;;5095503;28;20435;-64
2022/12/23 07:25:10;;;;;;;20.77;13.47;;;;;;;;;;5094894;28;20825;-64
2022/12/23 07:27:38;;;;;;;24.20;12.90;;;;;;;;;;5095199;28;20441;-64
2022/12/23 07:30:05;;;;;;;23.23;12.60;;;;;;;;;;5094942;28;20439;-64
2022/12/23 07:32:34;;;;;;;24.87;12.57;;;;;;;;;;5094528;28;20471;-64
2022/12/23 07:35:01;;;;;;;24.93;11.90;;;;;;;;;;5094845;28;20441;-64
2022/12/23 07:37:29;;;;;;;21.00;12.80;;;;;;;;;;5094981;28;20431;-64
2022/12/23 07:39:56;;;;;;;23.17;13.17;;;;;;;;;;5094825;28;20838;-64
2022/12/23 07:42:23;;;;;;;19.87;13.03;;;;;;;;;;5094614;28;20476;-64
2022/12/23 07:44:50;;;;;;;24.10;13.70;;;;;;;;;;5094679;28;20475;-64
2022/12/23 07:47:17;;;;;;;23.90;12.70;;;;;;;;;;5094548;28;20448;-64
2022/12/23 07:49:46;;;;;;;21.80;11.40;;;;;;;;;;5094389;28;20436;-64
2022/12/23 07:52:13;;;;;;;26.07;14.70;;;;;;;;;;5094508;28;20793;-64
2022/12/23 07:54:40;;;;;;;29.37;14.17;;;;;;;;;;5094486;28;20756;-64
2022/12/23 07:57:07;;;;;;;27.10;14.53;;;;;;;;;;5093793;28;20496;-64
2022/12/23 07:59:34;;;;;;;26.13;13.87;;;;;;;;;;5094132;28;20518;-63
2022/12/23 08:02:02;;;;;;;29.20;15.57;;;;;;;;;;5093982;28;20446;-64
2022/12/23 08:04:29;;;;;;;26.50;15.60;;;;;;;;;;5093523;28;20473;-64
2022/12/23 08:06:57;;;;;;;28.47;15.00;;;;;;;;;;5093964;28;20446;-64
2022/12/23 08:09:24;;;;;;;30.20;16.10;;;;;;;;;;5093930;28;21012;-64
2022/12/23 08:11:52;;;;;;;25.77;13.97;;;;;;;;;;5093734;28;20560;-64
2022/12/23 08:14:19;;;;;;;28.93;15.30;;;;;;;;;;5093994;28;20454;-64
2022/12/23 08:16:46;;;;;;;32.10;16.70;;;;;;;;;;5093744;28;20454;-64
2022/12/23 08:19:14;;;;;;;22.97;15.27;;;;;;;;;;5093725;28;20452;-64
2022/12/23 08:21:42;;;;;;;29.03;14.73;;;;;;;;;;5093480;28;20610;-64
2022/12/23 08:24:11;;;;;;;26.07;15.13;;;;;;;;;;5093459;28;20467;-64
2022/12/23 08:26:38;;;;;;;26.88;17.05;;;;;;;;;;5094159;28;20440;-64
2022/12/23 08:29:05;;;;;;;31.50;16.50;;;;;;;;;;5093621;28;20598;-64
2022/12/23 08:31:32;;;;;;;28.93;15.77;;;;;;;;;;5093674;28;20543;-64
2022/12/23 08:34:00;;;;;;;27.93;15.30;;;;;;;;;;5094046;28;20448;-64
2022/12/23 08:36:28;;;;;;;30.80;18.47;;;;;;;;;;5093320;28;20435;-64
2022/12/23 08:38:56;;;;;;;30.40;18.33;;;;;;;;;;5093437;28;20442;-64
2022/12/23 08:41:26;;;;;;;31.30;16.20;;;;;;;;;;5093599;28;20453;-64
2022/12/23 08:43:54;;;;;;;29.03;17.33;;;;;;;;;;5093602;28;20472;-64
2022/12/23 08:46:21;;;;;;;30.10;16.30;;;;;;;;;;5093457;28;20539;-64
2022/12/23 08:48:49;;;;;;;35.63;17.17;;;;;;;;;;5093540;28;20439;-64
2022/12/23 08:51:16;;;;;;;30.10;16.00;;;;;;;;;;5093266;28;20448;-65
2022/12/23 08:53:44;;;;;;;31.53;17.50;;;;;;;;;;5093373;28;20448;-64
2022/12/23 08:56:12;;;;;;;28.03;15.50;;;;;;;;;;5093411;28;20462;-64
2022/12/23 08:58:41;;;;;;;27.77;17.20;;;;;;;;;;5093482;28;20482;-64
2022/12/23 09:01:10;;;;;;;28.30;18.10;;;;;;;;;;5093423;28;20539;-65
2022/12/23 09:03:38;;;;;;;36.03;17.40;;;;;;;;;;5093531;28;20441;-65
2022/12/23 09:06:06;;;;;;;27.77;16.67;;;;;;;;;;5093450;28;20458;-64
2022/12/23 09:08:34;;;;;;;35.53;19.53;;;;;;;;;;5093034;28;20448;-64
2022/12/23 09:11:02;;;;;;;30.87;17.50;;;;;;;;;;5093130;28;20450;-65
2022/12/23 09:13:29;;;;;;;30.80;17.57;;;;;;;;;;5093380;28;20446;-65
2022/12/23 09:15:58;;;;;;;36.80;19.23;;;;;;;;;;5097129;28;20454;-64
2022/12/23 09:18:25;;;;;;;30.80;17.50;;;;;;;;;;5097454;28;20435;-64
2022/12/23 09:20:58;;;;;;;29.63;17.10;;;;;;;;;;5097803;28;20442;-64
2022/12/23 09:23:25;;;;;;;35.47;19.70;;;;;;;;;;5097005;28;20439;-64
2022/12/23 09:25:52;;;;;;;28.33;16.80;;;;;;;;;;5097293;28;20469;-64
2022/12/23 09:28:23;;;;;;;28.93;17.10;;;;;;;;;;5097290;28;20444;-65
2022/12/23 09:30:50;;;;;;;27.33;16.80;;;;;;;;;;5097180;28;20435;-64
2022/12/23 09:33:18;;;;;;;29.33;17.37;;;;;;;;;;5097286;28;20443;-65
2022/12/23 09:35:46;;;;;;;29.43;17.33;;;;;;;;;;5097106;28;20443;-64
2022/12/23 09:38:13;;;;;;;32.03;17.83;;;;;;;;;;5096668;28;20439;-65
2022/12/23 09:40:41;;;;;;;30.40;18.00;;;;;;;;;;5097049;28;20446;-64
2022/12/23 09:43:12;;;;;;;31.27;16.93;;;;;;;;;;5096976;28;20435;-65
2022/12/23 09:45:47;;;;;;;34.13;19.57;;;;;;;;;;5097117;28;20471;-65
2022/12/23 09:48:16;;;;;;;34.30;18.97;;;;;;;;;;5096652;28;20439;-65
2022/12/23 09:50:45;;;;;;;34.47;18.50;;;;;;;;;;5096567;28;20530;-65
2022/12/23 09:53:15;;;;;;;33.47;18.10;;;;;;;;;;5096566;28;20513;-65
2022/12/23 09:55:46;;;;;;;33.20;19.30;;;;;;;;;;5096885;28;20518;-65
2022/12/23 09:58:19;;;;;;;27.87;17.93;;;;;;;;;;5096389;28;20475;-65
2022/12/23 10:00:53;;;;;;;37.40;19.40;;;;;;;;;;5096649;28;20420;-65
2022/12/23 10:03:22;;;;;;;31.70;17.20;;;;;;;;;;5096377;28;20430;-65
2022/12/23 10:05:57;;;;;;;33.23;18.97;;;;;;;;;;5096868;28;20489;-65
2022/12/23 10:08:28;;;;;;;29.40;16.80;;;;;;;;;;5096454;28;20912;-65
2022/12/23 10:10:57;;;;;;;32.67;18.73;;;;;;;;;;5096762;28;20428;-64
2022/12/23 10:13:26;;;;;;;31.87;18.30;;;;;;;;;;5096455;28;20445;-65
2022/12/23 10:15:56;;;;;;;31.57;19.23;;;;;;;;;;5096478;28;20449;-65
2022/12/23 10:18:25;;;;;;;35.73;19.80;;;;;;;;;;5096744;28;20524;-63
2022/12/23 10:20:58;;;;;;;31.67;18.40;;;;;;;;;;5096629;28;20441;-65
2022/12/23 10:23:28;;;;;;;30.30;18.20;;;;;;;;;;5095744;28;20439;-63
2022/12/23 10:25:55;;;;;;;28.33;17.83;;;;;;;;;;5095358;28;20571;-64
2022/12/23 10:28:23;;;;;;;32.03;18.27;;;;;;;;;;5095766;28;20452;-64
2022/12/23 10:30:55;;;;;;;35.23;19.00;;;;;;;;;;5095938;28;20486;-63
2022/12/23 10:33:23;;;;;;;33.00;19.47;;;;;;;;;;5095859;28;20455;-63
2022/12/23 10:35:55;;;;;;;30.47;19.20;;;;;;;;;;5095862;28;20464;-63
2022/12/23 10:38:51;;;;;;;31.30;18.03;;;;;;;;;;5095623;28;20424;-64
2022/12/23 10:41:23;;;;;;;37.20;22.13;;;;;;;;;;5095466;28;20430;-64
2022/12/23 10:43:59;;;;;;;34.50;19.07;;;;;;;;;;5095535;28;20432;-64
2022/12/23 10:46:32;;;;;;;39.97;19.93;;;;;;;;;;5096118;28;20433;-64
2022/12/23 10:49:04;;;;;;;34.90;18.63;;;;;;;;;;5095593;28;20909;-63
2022/12/23 10:51:33;;;;;;;35.37;19.63;;;;;;;;;;5095842;28;20432;-64
2022/12/23 10:54:04;;;;;;;36.20;21.20;;;;;;;;;;5095444;28;20803;-64
2022/12/23 10:56:32;;;;;;;37.57;21.73;;;;;;;;;;5095381;28;20427;-65
2022/12/23 10:59:00;;;;;;;38.30;20.40;;;;;;;;;;5094920;28;20485;-64
2022/12/23 11:01:28;;;;;;;39.60;19.80;;;;;;;;;;5095106;28;20440;-64
2022/12/23 11:04:00;;;;;;;38.03;18.57;;;;;;;;;;5095304;28;20435;-64
2022/12/23 11:06:27;;;;;;;39.20;21.13;;;;;;;;;;5095100;28;20893;-64
2022/12/23 11:08:56;;;;;;;40.10;20.97;;;;;;;;;;5095277;28;20877;-65
2022/12/23 11:11:24;;;;;;;40.37;20.73;;;;;;;;;;5094915;28;20536;-65
2022/12/23 11:13:52;;;;;;;42.67;19.30;;;;;;;;;;5095569;28;20464;-65
2022/12/23 11:16:22;;;;;;;37.00;20.27;;;;;;;;;;5095461;28;20443;-65
2022/12/23 11:18:59;;;;;;;41.70;19.70;;;;;;;;;;5095047;28;20433;-65
2022/12/23 11:21:27;;;;;;;46.43;20.73;;;;;;;;;;5094807;28;20539;-73
2022/12/23 11:24:08;;;;;;;34.90;20.10;;;;;;;;;;5094683;28;20514;-65
2022/12/23 11:26:36;;;;;;;40.97;18.73;;;;;;;;;;5094981;28;20436;-65
2022/12/23 11:29:05;;;;;;;41.10;20.50;;;;;;;;;;5095321;28;20471;-66
2022/12/23 11:31:34;;;;;;;39.77;18.70;;;;;;;;;;5094944;28;20524;-66
2022/12/23 11:34:01;;;;;;;32.10;18.87;;;;;;;;;;5094356;28;20449;-66
2022/12/23 11:36:30;;;;;;;32.07;16.80;;;;;;;;;;5094700;28;20441;-66
2022/12/23 11:39:00;;;;;;;29.63;16.60;;;;;;;;;;5089607;28;20941;-66
2022/12/23 11:41:28;;;;;;;39.80;17.53;;;;;;;;;;5072787;28;20457;-66
2022/12/23 11:43:59;;;;;;;35.53;18.77;;;;;;;;;;5073000;28;20448;-66
2022/12/23 11:46:27;;;;;;;36.23;18.67;;;;;;;;;;5073472;28;20472;-66
2022/12/23 11:49:08;;;;;;;40.30;18.70;;;;;;;;;;5073299;28;20479;-66
2022/12/23 11:51:35;;;;;;;31.33;16.90;;;;;;;;;;5073305;28;20451;-66
2022/12/23 11:54:03;;;;;;;37.20;19.10;;;;;;;;;;5073037;28;20440;-66
2022/12/23 11:56:35;;;;;;;37.93;17.60;;;;;;;;;;5073651;28;20922;-66
2022/12/23 11:59:06;;;;;;;34.50;19.03;;;;;;;;;;5072922;28;20473;-66
2022/12/23 12:01:34;;;;;;;43.77;19.73;;;;;;;;;;5073489;28;20464;-66
2022/12/23 12:04:02;;;;;;;46.27;19.93;;;;;;;;;;5072879;28;20455;-66
2022/12/23 12:06:30;;;;;;;35.83;18.27;;;;;;;;;;5073026;28;20473;-66
2022/12/23 12:08:59;;;;;;;30.63;17.63;;;;;;;;;;5073080;28;20463;-66
2022/12/23 12:11:27;;;;;;;31.27;15.70;;;;;;;;;;5081797;28;20450;-66
2022/12/23 12:13:58;;;;;;;31.93;16.60;;;;;;;;;;5093923;28;20440;-66
2022/12/23 12:16:36;;;;;;;31.40;14.77;;;;;;;;;;5094126;28;20467;-66
2022/12/23 12:19:05;;;;;;;27.20;13.53;;;;;;;;;;5093916;28;20438;-66
2022/12/23 12:21:35;;;;;;;24.00;14.10;;;;;;;;;;5094152;28;20439;-66
2022/12/23 12:24:06;;;;;;;28.53;15.07;;;;;;;;;;5093711;28;20804;-66
2022/12/23 12:26:35;;;;;;;20.63;11.80;;;;;;;;;;5093335;28;20480;-66
2022/12/23 12:29:07;;;;;;;24.10;12.70;;;;;;;;;;5093346;28;20447;-66
2022/12/23 12:31:38;;;;;;;21.30;10.90;;;;;;;;;;5093824;28;20866;-65
2022/12/23 12:34:10;;;;;;;20.27;11.70;;;;;;;;;;5093422;28;20428;-65
2022/12/23 12:36:40;;;;;;;25.10;11.77;;;;;;;;;;5093361;28;20428;-65
2022/12/23 12:39:09;;;;;;;24.97;13.13;;;;;;;;;;5094054;28;20747;-66
2022/12/23 12:41:38;;;;;;;22.10;13.57;;;;;;;;;;5093385;28;20444;-66
2022/12/23 12:44:12;;;;;;;42.40;27.03;;;;;;;;;;5093150;28;20440;-66
2022/12/23 12:46:43;;;;;;;22.57;12.90;;;;;;;;;;5092831;28;20467;-66
2022/12/23 12:49:15;;;;;;;29.30;13.70;;;;;;;;;;5092580;28;20476;-66
2022/12/23 12:51:47;;;;;;;29.20;15.13;;;;;;;;;;5093039;28;20514;-66
2022/12/23 12:54:17;;;;;;;26.80;14.00;;;;;;;;;;5093728;28;20428;-66
2022/12/23 12:56:47;;;;;;;27.23;15.43;;;;;;;;;;5093227;28;20446;-65
2022/12/23 12:59:16;;;;;;;26.87;14.30;;;;;;;;;;5093629;28;20464;-66
2022/12/23 13:01:50;;;;;;;36.23;16.80;;;;;;;;;;5092895;28;20464;-66
2022/12/23 13:04:38;;;;;;;28.53;15.30;;;;;;;;;;5093026;28;20438;-66
2022/12/23 13:07:10;;;;;;;36.00;16.40;;;;;;;;;;5092735;28;20432;-66
2022/12/23 13:09:40;;;;;;;28.17;13.77;;;;;;;;;;5092589;28;20427;-67
2022/12/23 13:12:14;;;;;;;27.60;14.90;;;;;;;;;;5092739;28;20954;-66
2022/12/23 13:14:47;;;;;;;37.30;17.60;;;;;;;;;;5092915;28;20428;-66
2022/12/23 13:17:19;;;;;;;32.27;16.10;;;;;;;;;;5093233;28;20439;-67
2022/12/23 13:19:50;;;;;;;43.03;21.87;;;;;;;;;;5093597;28;20428;-66
2022/12/23 13:22:18;;;;;;;38.97;20.00;;;;;;;;;;5092768;28;20449;-66
2022/12/23 13:24:53;;;;;;;45.97;19.67;;;;;;;;;;5092426;28;20440;-67
2022/12/23 13:27:22;;;;;;;44.00;20.93;;;;;;;;;;5092272;28;20454;-66
2022/12/23 13:29:56;;;;;;;33.70;17.80;;;;;;;;;;5092365;28;20450;-66
2022/12/23 13:32:31;;;;;;;42.23;20.00;;;;;;;;;;5092778;28;20427;-66
2022/12/23 13:35:04;;;;;;;45.43;19.47;;;;;;;;;;5092503;28;20556;-66
2022/12/23 13:37:36;;;;;;;42.60;20.30;;;;;;;;;;5092784;28;20435;-66
2022/12/23 13:40:10;;;;;;;43.50;21.50;;;;;;;;;;5093147;28;20428;-66
2022/12/23 13:42:39;;;;;;;48.63;21.20;;;;;;;;;;5092671;28;20459;-66
2022/12/23 13:45:12;;;;;;;55.17;22.13;;;;;;;;;;5092482;28;20797;-66
2022/12/23 13:47:45;;;;;;;40.97;20.83;;;;;;;;;;5092378;28;20443;-66
2022/12/23 13:50:16;;;;;;;44.97;20.67;;;;;;;;;;5092253;28;20416;-67
2022/12/23 13:52:56;;;;;;;42.43;20.53;;;;;;;;;;5092430;28;20428;-66
2022/12/23 13:55:31;;;;;;;44.67;21.77;;;;;;;;;;5092616;28;20941;-66
2022/12/23 13:58:01;;;;;;;45.27;21.90;;;;;;;;;;5093262;28;20470;-66
2022/12/23 14:00:30;;;;;;;50.97;19.70;;;;;;;;;;5092598;28;20431;-66
2022/12/23 14:03:18;;;;;;;45.53;24.53;;;;;;;;;;5095821;28;20447;-66
2022/12/23 14:05:46;;;;;;;43.37;22.93;;;;;;;;;;5095866;28;20469;-66
2022/12/23 14:08:21;;;;;;;46.33;21.70;;;;;;;;;;5095832;28;20531;-66
2022/12/23 14:10:51;;;;;;;41.50;22.00;;;;;;;;;;5095548;28;20962;-66
2022/12/23 14:13:19;;;;;;;45.07;21.93;;;;;;;;;;5096005;28;20450;-65
2022/12/23 14:15:53;;;;;;;41.53;21.23;;;;;;;;;;5096241;28;20435;-71
2022/12/23 14:18:30;;;;;;;46.77;23.23;;;;;;;;;;5096464;28;20433;-65
2022/12/23 14:21:02;;;;;;;48.17;21.33;;;;;;;;;;5096093;28;20432;-65
2022/12/23 14:23:37;;;;;;;45.83;22.17;;;;;;;;;;5096211;28;20470;-65
2022/12/23 14:26:11;;;;;;;36.83;20.03;;;;;;;;;;5095508;28;20459;-65
2022/12/23 14:28:52;;;;;;;40.70;21.57;;;;;;;;;;5095167;28;20453;-65
2022/12/23 14:31:30;;;;;;;37.30;20.30;;;;;;;;;;5095889;28;20431;-65
2022/12/23 14:34:04;;;;;;;49.13;20.80;;;;;;;;;;5096064;28;20431;-65
2022/12/23 14:36:31;;;;;;;42.00;19.37;;;;;;;;;;5096595;28;20445;-65
2022/12/23 14:39:17;;;;;;;69.63;39.23;;;;;;;;;;5095572;28;20543;-65
2022/12/23 14:41:49;;;;;;;41.93;24.07;;;;;;;;;;5095404;28;21012;-65
2022/12/23 14:44:20;;;;;;;41.43;20.87;;;;;;;;;;5095943;28;20439;-65
2022/12/23 14:46:56;;;;;;;36.07;19.50;;;;;;;;;;5095402;28;20478;-65
2022/12/23 14:49:38;;;;;;;39.23;21.00;;;;;;;;;;5095547;28;20423;-65
2022/12/23 14:52:24;;;;;;;39.50;20.03;;;;;;;;;;5093756;28;20483;-65
2022/12/23 14:54:57;;;;;;;38.60;19.97;;;;;;;;;;5095299;28;20447;-65
2022/12/23 14:57:27;;;;;;;37.78;19.73;;;;;;;;;;5095069;28;20470;-65